sensor_id;sensor_type;location;lat;lon;timestamp;pressure;altitude;pressure_sealevel;temperature;humidity
13041;BME280;6587;42.728;23.288;2023-06-14T00:02:02;94819.91;;;17.69;100.00
13041;BME280;6587;42.728;23.288;2023-06-14T00:04:30;94820.66;;;17.71;100.00
13041;BME280;6587;42.728;23.288;2023-06-14T00:06:56;94816.09;;;17.83;100.00
13041;BME280;6587;42.728;23.288;2023-06-14T00:09:23;94815.00;;;17.65;100.00
13041;BME280;6587;42.728;23.288;2023-06-14T00:11:50;94816.97;;;17.83;100.00
13041;BME280;6587;42.728;23.288;2023-06-14T00:14:18;94815.66;;;17.70;100.00
13041;BME280;6587;42.728;23.288;2023-06-14T00:16:45;94817.03;;;17.53;100.00
13041;BME280;6587;42.728;23.288;2023-06-14T00:19:13;94816.75;;;17.63;100.00
13041;BME280;6587;42.728;23.288;2023-06-14T00:21:40;94809.69;;;17.71;100.00
13041;BME280;6587;42.728;23.288;2023-06-14T00:24:07;94816.81;;;17.61;100.00
13041;BME280;6587;42.728;23.288;2023-06-14T00:26:34;94812.69;;;17.57;100.00
13041;BME280;6587;42.728;23.288;2023-06-14T00:29:01;94808.31;;;17.62;100.00
13041;BME280;6587;42.728;23.288;2023-06-14T00:31:29;94804.16;;;17.60;100.00
13041;BME280;6587;42.728;23.288;2023-06-14T00:33:56;94808.66;;;17.51;100.00
13041;BME280;6587;42.728;23.288;2023-06-14T00:36:23;94805.03;;;17.59;100.00
13041;BME280;6587;42.728;23.288;2023-06-14T00:38:50;94809.41;;;17.53;100.00
13041;BME280;6587;42.728;23.288;2023-06-14T00:41:17;94804.41;;;17.52;100.00
13041;BME280;6587;42.728;23.288;2023-06-14T00:43:43;94801.38;;;17.67;100.00
13041;BME280;6587;42.728;23.288;2023-06-14T00:46:10;94796.50;;;17.61;100.00
13041;BME280;6587;42.728;23.288;2023-06-14T00:48:39;94795.56;;;17.64;100.00
13041;BME280;6587;42.728;23.288;2023-06-14T00:51:06;94799.28;;;17.53;100.00
13041;BME280;6587;42.728;23.288;2023-06-14T00:53:33;94805.72;;;17.64;100.00
13041;BME280;6587;42.728;23.288;2023-06-14T00:56:01;94802.88;;;17.46;100.00
13041;BME280;6587;42.728;23.288;2023-06-14T00:58:29;94791.44;;;17.61;100.00
13041;BME280;6587;42.728;23.288;2023-06-14T01:00:57;94793.84;;;17.64;100.00
13041;BME280;6587;42.728;23.288;2023-06-14T01:03:25;94799.41;;;17.50;100.00
13041;BME280;6587;42.728;23.288;2023-06-14T01:05:59;94800.78;;;17.59;100.00
13041;BME280;6587;42.728;23.288;2023-06-14T01:08:39;94791.81;;;17.75;100.00
13041;BME280;6587;42.728;23.288;2023-06-14T01:11:16;94795.81;;;17.83;100.00
13041;BME280;6587;42.728;23.288;2023-06-14T01:13:46;94791.63;;;17.55;100.00
13041;BME280;6587;42.728;23.288;2023-06-14T01:16:14;94794.38;;;17.74;100.00
13041;BME280;6587;42.728;23.288;2023-06-14T01:18:41;94795.47;;;17.67;100.00
13041;BME280;6587;42.728;23.288;2023-06-14T01:21:22;94791.47;;;17.60;100.00
13041;BME280;6587;42.728;23.288;2023-06-14T01:23:50;94788.19;;;17.58;100.00
13041;BME280;6587;42.728;23.288;2023-06-14T01:26:19;94790.84;;;17.53;100.00
13041;BME280;6587;42.728;23.288;2023-06-14T01:28:47;94794.09;;;17.56;100.00
13041;BME280;6587;42.728;23.288;2023-06-14T01:31:17;94788.00;;;17.62;100.00
13041;BME280;6587;42.728;23.288;2023-06-14T01:33:48;94796.69;;;17.55;100.00
13041;BME280;6587;42.728;23.288;2023-06-14T01:36:17;94790.19;;;17.46;100.00
13041;BME280;6587;42.728;23.288;2023-06-14T01:38:46;94788.19;;;17.58;100.00
13041;BME280;6587;42.728;23.288;2023-06-14T01:41:15;94795.91;;;17.53;100.00
13041;BME280;6587;42.728;23.288;2023-06-14T01:43:44;94797.63;;;17.52;100.00
13041;BME280;6587;42.728;23.288;2023-06-14T01:46:13;94795.63;;;17.36;100.00
13041;BME280;6587;42.728;23.288;2023-06-14T01:48:41;94797.06;;;17.44;100.00
13041;BME280;6587;42.728;23.288;2023-06-14T01:51:08;94796.00;;;17.50;100.00
13041;BME280;6587;42.728;23.288;2023-06-14T01:53:35;94800.25;;;17.49;100.00
13041;BME280;6587;42.728;23.288;2023-06-14T01:56:02;94797.06;;;17.44;100.00
13041;BME280;6587;42.728;23.288;2023-06-14T01:58:32;94803.03;;;17.42;100.00
13041;BME280;6587;42.728;23.288;2023-06-14T02:00:59;94803.19;;;17.37;100.00
13041;BME280;6587;42.728;23.288;2023-06-14T02:03:27;94805.53;;;17.43;100.00
13041;BME280;6587;42.728;23.288;2023-06-14T02:05:54;94810.41;;;17.23;100.00
13041;BME280;6587;42.728;23.288;2023-06-14T02:08:21;94808.50;;;17.29;100.00
13041;BME280;6587;42.728;23.288;2023-06-14T02:10:48;94816.75;;;17.36;100.00
13041;BME280;6587;42.728;23.288;2023-06-14T02:13:15;94819.91;;;17.43;100.00
13041;BME280;6587;42.728;23.288;2023-06-14T02:15:43;94821.38;;;17.50;100.00
13041;BME280;6587;42.728;23.288;2023-06-14T02:18:12;94819.56;;;17.53;100.00
13041;BME280;6587;42.728;23.288;2023-06-14T02:20:39;94826.00;;;17.37;100.00
13041;BME280;6587;42.728;23.288;2023-06-14T02:23:05;94825.06;;;17.13;100.00
13041;BME280;6587;42.728;23.288;2023-06-14T02:25:33;94823.00;;;17.26;100.00
13041;BME280;6587;42.728;23.288;2023-06-14T02:28:00;94830.34;;;17.07;100.00
13041;BME280;6587;42.728;23.288;2023-06-14T02:30:27;94829.81;;;17.24;100.00
13041;BME280;6587;42.728;23.288;2023-06-14T02:32:57;94825.72;;;17.20;100.00
13041;BME280;6587;42.728;23.288;2023-06-14T02:35:24;94833.59;;;17.11;100.00
13041;BME280;6587;42.728;23.288;2023-06-14T02:37:52;94825.22;;;17.08;100.00
13041;BME280;6587;42.728;23.288;2023-06-14T02:40:22;94830.88;;;17.17;100.00
13041;BME280;6587;42.728;23.288;2023-06-14T02:42:49;94809.59;;;17.22;100.00
13041;BME280;6587;42.728;23.288;2023-06-14T02:45:16;94825.22;;;17.35;100.00
13041;BME280;6587;42.728;23.288;2023-06-14T02:47:43;94821.69;;;17.13;100.00
13041;BME280;6587;42.728;23.288;2023-06-14T02:50:13;94815.28;;;17.29;100.00
13041;BME280;6587;42.728;23.288;2023-06-14T02:52:41;94813.94;;;17.17;100.00
13041;BME280;6587;42.728;23.288;2023-06-14T02:55:10;94814.66;;;17.22;100.00
13041;BME280;6587;42.728;23.288;2023-06-14T02:57:37;94821.84;;;17.35;100.00
13041;BME280;6587;42.728;23.288;2023-06-14T03:00:06;94830.19;;;17.38;100.00
13041;BME280;6587;42.728;23.288;2023-06-14T03:02:37;94833.28;;;17.48;100.00
13041;BME280;6587;42.728;23.288;2023-06-14T03:05:04;94830.34;;;17.60;100.00
13041;BME280;6587;42.728;23.288;2023-06-14T03:07:35;94826.97;;;17.60;100.00
13041;BME280;6587;42.728;23.288;2023-06-14T03:10:07;94837.22;;;17.56;100.00
13041;BME280;6587;42.728;23.288;2023-06-14T03:12:35;94844.16;;;17.51;100.00
13041;BME280;6587;42.728;23.288;2023-06-14T03:15:02;94841.66;;;17.50;100.00
13041;BME280;6587;42.728;23.288;2023-06-14T03:17:35;94837.72;;;17.41;100.00
13041;BME280;6587;42.728;23.288;2023-06-14T03:20:06;94843.44;;;17.48;100.00
13041;BME280;6587;42.728;23.288;2023-06-14T03:22:35;94855.94;;;17.54;100.00
13041;BME280;6587;42.728;23.288;2023-06-14T03:25:03;94853.38;;;17.54;100.00
13041;BME280;6587;42.728;23.288;2023-06-14T03:27:33;94846.63;;;17.53;100.00
13041;BME280;6587;42.728;23.288;2023-06-14T03:30:01;94846.44;;;17.32;100.00
13041;BME280;6587;42.728;23.288;2023-06-14T03:32:31;94851.81;;;17.50;100.00
13041;BME280;6587;42.728;23.288;2023-06-14T03:34:59;94847.38;;;17.56;100.00
13041;BME280;6587;42.728;23.288;2023-06-14T03:37:25;94847.22;;;17.35;100.00
13041;BME280;6587;42.728;23.288;2023-06-14T03:39:54;94846.16;;;17.42;100.00
13041;BME280;6587;42.728;23.288;2023-06-14T03:42:23;94851.63;;;17.28;100.00
13041;BME280;6587;42.728;23.288;2023-06-14T03:44:50;94851.88;;;17.20;100.00
13041;BME280;6587;42.728;23.288;2023-06-14T03:47:20;94855.44;;;17.15;100.00
13041;BME280;6587;42.728;23.288;2023-06-14T03:49:47;94853.69;;;17.17;100.00
13041;BME280;6587;42.728;23.288;2023-06-14T03:52:14;94840.50;;;17.05;100.00
13041;BME280;6587;42.728;23.288;2023-06-14T03:54:44;94854.56;;;17.16;100.00
13041;BME280;6587;42.728;23.288;2023-06-14T03:57:14;94853.66;;;17.45;100.00
13041;BME280;6587;42.728;23.288;2023-06-14T03:59:42;94849.16;;;17.54;100.00
13041;BME280;6587;42.728;23.288;2023-06-14T04:02:08;94851.19;;;17.70;100.00
13041;BME280;6587;42.728;23.288;2023-06-14T04:04:36;94854.38;;;17.76;100.00
13041;BME280;6587;42.728;23.288;2023-06-14T04:07:05;94850.59;;;17.88;100.00
13041;BME280;6587;42.728;23.288;2023-06-14T04:09:34;94854.91;;;18.11;100.00
13041;BME280;6587;42.728;23.288;2023-06-14T04:12:01;94848.47;;;18.01;100.00
13041;BME280;6587;42.728;23.288;2023-06-14T04:14:32;94851.34;;;17.92;100.00
13041;BME280;6587;42.728;23.288;2023-06-14T04:17:00;94853.00;;;18.18;100.00
13041;BME280;6587;42.728;23.288;2023-06-14T04:19:27;94858.13;;;18.16;100.00
13041;BME280;6587;42.728;23.288;2023-06-14T04:21:54;94858.31;;;18.35;100.00
13041;BME280;6587;42.728;23.288;2023-06-14T04:24:21;94859.41;;;18.28;100.00
13041;BME280;6587;42.728;23.288;2023-06-14T04:26:49;94864.69;;;18.22;100.00
13041;BME280;6587;42.728;23.288;2023-06-14T04:29:17;94859.50;;;18.25;100.00
13041;BME280;6587;42.728;23.288;2023-06-14T04:31:53;94858.38;;;18.57;100.00
13041;BME280;6587;42.728;23.288;2023-06-14T04:34:25;94862.66;;;18.80;100.00
13041;BME280;6587;42.728;23.288;2023-06-14T04:36:56;94863.81;;;18.95;100.00
13041;BME280;6587;42.728;23.288;2023-06-14T04:39:30;94860.00;;;19.07;100.00
13041;BME280;6587;42.728;23.288;2023-06-14T04:41:59;94860.22;;;19.00;100.00
13041;BME280;6587;42.728;23.288;2023-06-14T04:44:29;94864.69;;;18.94;100.00
13041;BME280;6587;42.728;23.288;2023-06-14T04:47:00;94861.31;;;18.70;100.00
13041;BME280;6587;42.728;23.288;2023-06-14T04:49:27;94861.84;;;18.80;100.00
13041;BME280;6587;42.728;23.288;2023-06-14T04:51:56;94859.03;;;19.31;100.00
13041;BME280;6587;42.728;23.288;2023-06-14T04:54:27;94873.19;;;19.38;100.00
13041;BME280;6587;42.728;23.288;2023-06-14T04:56:57;94868.41;;;19.31;100.00
13041;BME280;6587;42.728;23.288;2023-06-14T04:59:26;94876.13;;;19.06;100.00
13041;BME280;6587;42.728;23.288;2023-06-14T05:01:52;94873.13;;;18.96;100.00
13041;BME280;6587;42.728;23.288;2023-06-14T05:04:24;94868.19;;;19.13;100.00
13041;BME280;6587;42.728;23.288;2023-06-14T05:06:52;94881.59;;;19.40;100.00
13041;BME280;6587;42.728;23.288;2023-06-14T05:09:20;94888.44;;;19.38;100.00
13041;BME280;6587;42.728;23.288;2023-06-14T05:11:49;94881.13;;;19.31;100.00
13041;BME280;6587;42.728;23.288;2023-06-14T05:14:16;94879.47;;;19.52;100.00
13041;BME280;6587;42.728;23.288;2023-06-14T05:16:43;94886.56;;;19.43;100.00
13041;BME280;6587;42.728;23.288;2023-06-14T05:19:10;94885.25;;;19.55;100.00
13041;BME280;6587;42.728;23.288;2023-06-14T05:21:38;94893.00;;;19.52;100.00
13041;BME280;6587;42.728;23.288;2023-06-14T05:24:06;94890.94;;;19.18;100.00
13041;BME280;6587;42.728;23.288;2023-06-14T05:26:34;94892.78;;;19.36;100.00
13041;BME280;6587;42.728;23.288;2023-06-14T05:29:01;94903.66;;;19.40;100.00
13041;BME280;6587;42.728;23.288;2023-06-14T05:31:28;94912.78;;;19.00;100.00
13041;BME280;6587;42.728;23.288;2023-06-14T05:33:55;94911.22;;;19.19;100.00
13041;BME280;6587;42.728;23.288;2023-06-14T05:36:22;94909.28;;;19.26;100.00
13041;BME280;6587;42.728;23.288;2023-06-14T05:38:51;94914.28;;;19.49;100.00
13041;BME280;6587;42.728;23.288;2023-06-14T05:41:23;94911.25;;;19.63;100.00
13041;BME280;6587;42.728;23.288;2023-06-14T05:43:51;94909.94;;;19.75;100.00
13041;BME280;6587;42.728;23.288;2023-06-14T05:46:18;94919.28;;;19.96;100.00
13041;BME280;6587;42.728;23.288;2023-06-14T05:48:47;94917.50;;;19.99;100.00
13041;BME280;6587;42.728;23.288;2023-06-14T05:51:14;94914.72;;;20.05;100.00
13041;BME280;6587;42.728;23.288;2023-06-14T05:53:44;94916.78;;;19.95;100.00
13041;BME280;6587;42.728;23.288;2023-06-14T05:56:13;94919.66;;;20.08;100.00
13041;BME280;6587;42.728;23.288;2023-06-14T05:58:40;94918.78;;;20.09;100.00
13041;BME280;6587;42.728;23.288;2023-06-14T06:01:06;94929.31;;;19.57;100.00
13041;BME280;6587;42.728;23.288;2023-06-14T06:03:33;94927.72;;;19.53;100.00
13041;BME280;6587;42.728;23.288;2023-06-14T06:06:00;94921.78;;;19.09;100.00
13041;BME280;6587;42.728;23.288;2023-06-14T06:08:28;94924.25;;;19.34;100.00
13041;BME280;6587;42.728;23.288;2023-06-14T06:10:55;94929.97;;;19.62;100.00
13041;BME280;6587;42.728;23.288;2023-06-14T06:13:23;94921.09;;;19.93;100.00
13041;BME280;6587;42.728;23.288;2023-06-14T06:15:50;94923.72;;;19.91;100.00
13041;BME280;6587;42.728;23.288;2023-06-14T06:18:17;94929.34;;;20.00;100.00
13041;BME280;6587;42.728;23.288;2023-06-14T06:20:44;94930.97;;;20.01;100.00
13041;BME280;6587;42.728;23.288;2023-06-14T06:23:12;94927.72;;;19.97;100.00
13041;BME280;6587;42.728;23.288;2023-06-14T06:25:39;94938.53;;;19.82;100.00
13041;BME280;6587;42.728;23.288;2023-06-14T06:28:06;94936.38;;;20.35;100.00
13041;BME280;6587;42.728;23.288;2023-06-14T06:30:35;94937.53;;;20.49;100.00
13041;BME280;6587;42.728;23.288;2023-06-14T06:33:02;94943.13;;;20.36;100.00
13041;BME280;6587;42.728;23.288;2023-06-14T06:35:29;94936.31;;;20.57;100.00
13041;BME280;6587;42.728;23.288;2023-06-14T06:37:59;94934.72;;;20.75;100.00
13041;BME280;6587;42.728;23.288;2023-06-14T06:40:26;94938.88;;;20.57;100.00
13041;BME280;6587;42.728;23.288;2023-06-14T06:42:53;94937.47;;;20.50;100.00
13041;BME280;6587;42.728;23.288;2023-06-14T06:45:20;94938.44;;;20.87;100.00
13041;BME280;6587;42.728;23.288;2023-06-14T06:47:50;94944.03;;;21.53;100.00
13041;BME280;6587;42.728;23.288;2023-06-14T06:50:17;94941.31;;;21.75;100.00
13041;BME280;6587;42.728;23.288;2023-06-14T06:52:45;94938.88;;;21.72;100.00
13041;BME280;6587;42.728;23.288;2023-06-14T06:55:12;94945.06;;;21.85;100.00
13041;BME280;6587;42.728;23.288;2023-06-14T06:57:39;94949.78;;;21.93;100.00
13041;BME280;6587;42.728;23.288;2023-06-14T07:00:08;94945.75;;;21.89;100.00
13041;BME280;6587;42.728;23.288;2023-06-14T07:02:35;94945.38;;;21.60;100.00
13041;BME280;6587;42.728;23.288;2023-06-14T07:05:04;94949.44;;;21.83;100.00
13041;BME280;6587;42.728;23.288;2023-06-14T07:07:31;94946.66;;;21.88;100.00
13041;BME280;6587;42.728;23.288;2023-06-14T07:09:58;94942.16;;;21.38;100.00
13041;BME280;6587;42.728;23.288;2023-06-14T07:12:25;94944.00;;;22.26;100.00
13041;BME280;6587;42.728;23.288;2023-06-14T07:14:52;94934.53;;;22.45;100.00
13041;BME280;6587;42.728;23.288;2023-06-14T07:17:19;94940.53;;;22.95;100.00
13041;BME280;6587;42.728;23.288;2023-06-14T07:19:47;94936.53;;;23.06;100.00
13041;BME280;6587;42.728;23.288;2023-06-14T07:22:16;94931.69;;;23.18;100.00
13041;BME280;6587;42.728;23.288;2023-06-14T07:24:44;94932.94;;;23.26;100.00
13041;BME280;6587;42.728;23.288;2023-06-14T07:27:11;94939.88;;;23.24;100.00
13041;BME280;6587;42.728;23.288;2023-06-14T07:29:38;94937.53;;;22.87;100.00
13041;BME280;6587;42.728;23.288;2023-06-14T07:32:06;94936.91;;;23.32;100.00
13041;BME280;6587;42.728;23.288;2023-06-14T07:34:33;94927.41;;;23.18;100.00
13041;BME280;6587;42.728;23.288;2023-06-14T07:37:00;94932.84;;;23.44;100.00
13041;BME280;6587;42.728;23.288;2023-06-14T07:39:29;94927.72;;;23.44;100.00
13041;BME280;6587;42.728;23.288;2023-06-14T07:41:55;94929.63;;;23.56;100.00
13041;BME280;6587;42.728;23.288;2023-06-14T07:44:22;94932.41;;;23.99;100.00
13041;BME280;6587;42.728;23.288;2023-06-14T07:46:49;94936.81;;;23.81;100.00
13041;BME280;6587;42.728;23.288;2023-06-14T07:49:16;94935.88;;;23.68;100.00
13041;BME280;6587;42.728;23.288;2023-06-14T07:51:43;94931.78;;;23.80;100.00
13041;BME280;6587;42.728;23.288;2023-06-14T07:54:11;94950.25;;;22.88;100.00
13041;BME280;6587;42.728;23.288;2023-06-14T07:56:39;94953.81;;;22.68;100.00
13041;BME280;6587;42.728;23.288;2023-06-14T07:59:06;94950.00;;;22.77;100.00
13041;BME280;6587;42.728;23.288;2023-06-14T08:01:34;94950.69;;;23.29;100.00
13041;BME280;6587;42.728;23.288;2023-06-14T08:04:01;94958.78;;;23.38;100.00
13041;BME280;6587;42.728;23.288;2023-06-14T08:06:28;94957.03;;;23.38;100.00
13041;BME280;6587;42.728;23.288;2023-06-14T08:08:55;94956.88;;;24.05;100.00
13041;BME280;6587;42.728;23.288;2023-06-14T08:11:22;94957.59;;;24.07;98.94
13041;BME280;6587;42.728;23.288;2023-06-14T08:13:51;94961.63;;;24.26;100.00
13041;BME280;6587;42.728;23.288;2023-06-14T08:16:18;94972.09;;;24.82;100.00
13041;BME280;6587;42.728;23.288;2023-06-14T08:18:45;94968.00;;;25.08;98.27
13041;BME280;6587;42.728;23.288;2023-06-14T08:21:12;94965.38;;;24.51;96.50
13041;BME280;6587;42.728;23.288;2023-06-14T08:23:40;94964.75;;;24.32;96.52
13041;BME280;6587;42.728;23.288;2023-06-14T08:26:08;94961.53;;;24.28;97.66
13041;BME280;6587;42.728;23.288;2023-06-14T08:28:35;94970.94;;;23.82;100.00
13041;BME280;6587;42.728;23.288;2023-06-14T08:31:03;94963.88;;;24.47;100.00
13041;BME280;6587;42.728;23.288;2023-06-14T08:33:30;94968.47;;;24.42;100.00
13041;BME280;6587;42.728;23.288;2023-06-14T08:35:59;94968.81;;;24.80;100.00
13041;BME280;6587;42.728;23.288;2023-06-14T08:38:26;94962.13;;;24.78;93.77
13041;BME280;6587;42.728;23.288;2023-06-14T08:40:57;94963.00;;;25.62;94.54
13041;BME280;6587;42.728;23.288;2023-06-14T08:43:24;94959.94;;;25.43;95.59
13041;BME280;6587;42.728;23.288;2023-06-14T08:45:54;94958.50;;;25.66;93.10
13041;BME280;6587;42.728;23.288;2023-06-14T08:48:26;94953.06;;;25.70;92.04
13041;BME280;6587;42.728;23.288;2023-06-14T08:50:54;94946.59;;;25.92;91.20
13041;BME280;6587;42.728;23.288;2023-06-14T08:53:28;94945.66;;;26.60;92.02
13041;BME280;6587;42.728;23.288;2023-06-14T08:55:58;94948.66;;;26.79;86.94
13041;BME280;6587;42.728;23.288;2023-06-14T08:58:27;94951.94;;;27.32;83.85
13041;BME280;6587;42.728;23.288;2023-06-14T09:00:55;94943.78;;;27.39;78.16
13041;BME280;6587;42.728;23.288;2023-06-14T09:03:23;94938.56;;;27.27;80.03
13041;BME280;6587;42.728;23.288;2023-06-14T09:05:57;94940.94;;;26.92;77.89
13041;BME280;6587;42.728;23.288;2023-06-14T09:08:26;94939.91;;;26.56;81.73
13041;BME280;6587;42.728;23.288;2023-06-14T09:10:56;94929.72;;;26.55;78.16
13041;BME280;6587;42.728;23.288;2023-06-14T09:13:23;94932.63;;;26.36;79.69
13041;BME280;6587;42.728;23.288;2023-06-14T09:15:50;94933.09;;;25.61;83.78
13041;BME280;6587;42.728;23.288;2023-06-14T09:18:17;94927.56;;;24.69;87.87
13041;BME280;6587;42.728;23.288;2023-06-14T09:20:45;94919.66;;;24.58;90.33
13041;BME280;6587;42.728;23.288;2023-06-14T09:23:20;94930.94;;;24.55;92.45
13041;BME280;6587;42.728;23.288;2023-06-14T09:25:47;94928.31;;;24.71;92.16
13041;BME280;6587;42.728;23.288;2023-06-14T09:28:14;94929.09;;;24.57;89.26
13041;BME280;6587;42.728;23.288;2023-06-14T09:30:41;94927.19;;;24.61;89.51
13041;BME280;6587;42.728;23.288;2023-06-14T09:33:08;94921.31;;;24.87;92.04
13041;BME280;6587;42.728;23.288;2023-06-14T09:35:35;94925.84;;;25.12;89.84
13041;BME280;6587;42.728;23.288;2023-06-14T09:38:02;94926.88;;;25.51;87.78
13041;BME280;6587;42.728;23.288;2023-06-14T09:40:33;94925.97;;;25.52;84.89
13041;BME280;6587;42.728;23.288;2023-06-14T09:43:02;94925.09;;;25.80;87.45
13041;BME280;6587;42.728;23.288;2023-06-14T09:45:31;94918.28;;;26.46;85.72
13041;BME280;6587;42.728;23.288;2023-06-14T09:47:58;94921.31;;;26.38;82.36
13041;BME280;6587;42.728;23.288;2023-06-14T09:50:25;94916.31;;;26.10;80.23
13041;BME280;6587;42.728;23.288;2023-06-14T09:52:52;94916.69;;;26.31;83.92
13041;BME280;6587;42.728;23.288;2023-06-14T09:55:24;94917.88;;;26.52;81.53
13041;BME280;6587;42.728;23.288;2023-06-14T09:57:56;94911.06;;;26.64;79.98
13041;BME280;6587;42.728;23.288;2023-06-14T10:00:25;94905.63;;;26.03;80.87
13041;BME280;6587;42.728;23.288;2023-06-14T10:02:57;94897.28;;;26.78;81.01
13041;BME280;6587;42.728;23.288;2023-06-14T10:05:27;94898.28;;;27.50;81.77
13041;BME280;6587;42.728;23.288;2023-06-14T10:08:00;94896.06;;;27.94;78.82
13041;BME280;6587;42.728;23.288;2023-06-14T10:10:30;94896.16;;;27.68;79.07
13041;BME280;6587;42.728;23.288;2023-06-14T10:12:59;94891.09;;;28.03;75.57
13041;BME280;6587;42.728;23.288;2023-06-14T10:15:30;94887.56;;;27.80;73.43
13041;BME280;6587;42.728;23.288;2023-06-14T10:18:04;94885.94;;;27.79;73.62
13041;BME280;6587;42.728;23.288;2023-06-14T10:20:39;94884.91;;;28.64;68.74
13041;BME280;6587;42.728;23.288;2023-06-14T10:23:13;94871.91;;;29.10;67.47
13041;BME280;6587;42.728;23.288;2023-06-14T10:25:43;94874.47;;;29.10;68.34
13041;BME280;6587;42.728;23.288;2023-06-14T10:28:19;94873.41;;;29.79;64.64
13041;BME280;6587;42.728;23.288;2023-06-14T10:31:04;94863.84;;;30.43;63.73
13041;BME280;6587;42.728;23.288;2023-06-14T10:33:31;94863.59;;;30.26;60.61
13041;BME280;6587;42.728;23.288;2023-06-14T10:36:26;94862.31;;;29.44;58.50
13041;BME280;6587;42.728;23.288;2023-06-14T10:38:57;94866.25;;;28.71;59.93
13041;BME280;6587;42.728;23.288;2023-06-14T10:41:27;94864.38;;;28.51;63.36
13041;BME280;6587;42.728;23.288;2023-06-14T10:46:53;94860.38;;;28.81;59.62
13041;BME280;6587;42.728;23.288;2023-06-14T10:49:37;94843.97;;;30.12;62.59
13041;BME280;6587;42.728;23.288;2023-06-14T10:52:08;94839.88;;;30.09;62.64
13041;BME280;6587;42.728;23.288;2023-06-14T10:55:09;94839.75;;;30.32;61.00
13041;BME280;6587;42.728;23.288;2023-06-14T10:57:38;94840.34;;;29.61;62.35
13041;BME280;6587;42.728;23.288;2023-06-14T11:00:07;94838.56;;;30.15;59.79
13041;BME280;6587;42.728;23.288;2023-06-14T11:02:52;94832.22;;;30.50;57.64
13041;BME280;6587;42.728;23.288;2023-06-14T11:05:24;94818.94;;;30.33;52.98
13041;BME280;6587;42.728;23.288;2023-06-14T11:08:05;94819.84;;;31.24;55.51
13041;BME280;6587;42.728;23.288;2023-06-14T11:10:39;94828.09;;;30.37;55.17
13041;BME280;6587;42.728;23.288;2023-06-14T11:13:06;94818.88;;;29.82;55.22
13041;BME280;6587;42.728;23.288;2023-06-14T11:15:34;94817.13;;;30.24;56.14
13041;BME280;6587;42.728;23.288;2023-06-14T11:18:04;94807.16;;;31.21;55.48
13041;BME280;6587;42.728;23.288;2023-06-14T11:20:33;94808.59;;;30.95;56.97
13041;BME280;6587;42.728;23.288;2023-06-14T11:23:01;94810.63;;;30.60;54.13
13041;BME280;6587;42.728;23.288;2023-06-14T11:25:28;94805.66;;;31.28;54.04
13041;BME280;6587;42.728;23.288;2023-06-14T11:27:56;94807.03;;;30.82;55.13
13041;BME280;6587;42.728;23.288;2023-06-14T11:30:23;94806.78;;;30.55;51.06
13041;BME280;6587;42.728;23.288;2023-06-14T11:32:51;94805.44;;;32.09;49.24
13041;BME280;6587;42.728;23.288;2023-06-14T11:35:23;94809.66;;;32.67;49.20
13041;BME280;6587;42.728;23.288;2023-06-14T11:37:53;94806.75;;;32.32;48.07
13041;BME280;6587;42.728;23.288;2023-06-14T11:40:23;94812.47;;;32.46;48.01
13041;BME280;6587;42.728;23.288;2023-06-14T11:42:58;94802.69;;;30.83;49.50
13041;BME280;6587;42.728;23.288;2023-06-14T11:45:26;94799.56;;;30.89;51.83
13041;BME280;6587;42.728;23.288;2023-06-14T11:47:54;94791.72;;;32.26;47.45
13041;BME280;6587;42.728;23.288;2023-06-14T11:50:24;94784.72;;;32.83;48.38
13041;BME280;6587;42.728;23.288;2023-06-14T11:52:54;94781.97;;;32.57;46.22
13041;BME280;6587;42.728;23.288;2023-06-14T11:55:21;94776.16;;;32.26;45.77
13041;BME280;6587;42.728;23.288;2023-06-14T11:57:49;94775.50;;;32.89;46.76
13041;BME280;6587;42.728;23.288;2023-06-14T12:00:16;94775.56;;;33.52;45.54
13041;BME280;6587;42.728;23.288;2023-06-14T12:02:52;94780.44;;;33.20;45.42
13041;BME280;6587;42.728;23.288;2023-06-14T12:05:20;94765.66;;;33.38;43.21
13041;BME280;6587;42.728;23.288;2023-06-14T12:07:49;94760.75;;;33.35;44.75
13041;BME280;6587;42.728;23.288;2023-06-14T12:10:18;94750.53;;;32.78;44.82
13041;BME280;6587;42.728;23.288;2023-06-14T12:12:45;94753.47;;;33.21;45.23
13041;BME280;6587;42.728;23.288;2023-06-14T12:15:12;94749.47;;;33.62;43.20
13041;BME280;6587;42.728;23.288;2023-06-14T12:17:39;94748.66;;;34.06;42.04
13041;BME280;6587;42.728;23.288;2023-06-14T12:20:10;94753.03;;;34.31;40.98
13041;BME280;6587;42.728;23.288;2023-06-14T12:22:46;94738.22;;;34.58;40.76
13041;BME280;6587;42.728;23.288;2023-06-14T12:25:27;94741.97;;;34.29;41.07
13041;BME280;6587;42.728;23.288;2023-06-14T12:27:58;94733.75;;;35.51;41.24
13041;BME280;6587;42.728;23.288;2023-06-14T12:30:25;94738.16;;;36.08;40.81
13041;BME280;6587;42.728;23.288;2023-06-14T12:32:52;94734.53;;;36.17;39.34
13041;BME280;6587;42.728;23.288;2023-06-14T12:35:18;94734.97;;;35.06;39.02
13041;BME280;6587;42.728;23.288;2023-06-14T12:37:46;94728.38;;;36.10;39.09
13041;BME280;6587;42.728;23.288;2023-06-14T12:40:13;94712.03;;;36.08;38.33
13041;BME280;6587;42.728;23.288;2023-06-14T12:42:41;94718.91;;;35.84;39.83
13041;BME280;6587;42.728;23.288;2023-06-14T12:45:09;94712.31;;;36.13;38.53
13041;BME280;6587;42.728;23.288;2023-06-14T12:47:36;94713.00;;;35.33;40.18
13041;BME280;6587;42.728;23.288;2023-06-14T12:50:04;94715.19;;;35.62;38.27
13041;BME280;6587;42.728;23.288;2023-06-14T12:52:31;94712.09;;;34.92;39.12
13041;BME280;6587;42.728;23.288;2023-06-14T12:55:01;94717.50;;;33.16;40.32
13041;BME280;6587;42.728;23.288;2023-06-14T12:57:29;94713.44;;;32.86;41.96
13041;BME280;6587;42.728;23.288;2023-06-14T12:59:59;94700.63;;;32.20;43.50
13041;BME280;6587;42.728;23.288;2023-06-14T13:02:26;94703.75;;;31.57;43.78
13041;BME280;6587;42.728;23.288;2023-06-14T13:04:53;94707.00;;;31.01;45.48